Time;durP1;ratioP1;P1;durP2;ratioP2;P2;SDS_P1;SDS_P2;PMS_P1;PMS_P2;Temp;Humidity;BMP_temperature;BMP_pressure;BME280_temperature;BME280_humidity;BME280_pressure;Samples;Min_cycle;Max_cycle;Signal;HPM_P1;HPM_P2
2023/09/27 00:00:40;;;;;;;3.55;3.20;;;;;;;23.63;47.70;101987.56;5080063;28;20051;-70
2023/09/27 00:03:05;;;;;;;4.35;3.25;;;;;;;23.64;47.70;101979.41;5024414;28;20460;-69
2023/09/27 00:05:31;;;;;;;4.18;3.28;;;;;;;23.63;47.79;101979.59;5077708;28;20028;-69
2023/09/27 00:07:57;;;;;;;5.28;3.22;;;;;;;23.62;47.62;101972.63;5019521;28;20542;-69
2023/09/27 00:10:23;;;;;;;4.30;3.10;;;;;;;23.60;47.58;101970.16;5077576;28;20047;-68
2023/09/27 00:12:49;;;;;;;4.65;3.42;;;;;;;23.63;47.75;101977.75;5023744;28;20789;-68
2023/09/27 00:15:19;;;;;;;3.47;2.88;;;;;;;23.56;47.50;101966.16;5066973;28;20704;-70
2023/09/27 00:17:44;;;;;;;5.10;3.00;;;;;;;23.60;47.55;101974.63;5070195;28;20139;-69
2023/09/27 00:20:13;;;;;;;4.53;3.40;;;;;;;23.62;47.79;101984.09;5068078;28;20044;-68
2023/09/27 00:22:38;;;;;;;4.13;3.17;;;;;;;23.61;47.75;101986.94;5023245;28;20040;-69
2023/09/27 00:25:07;;;;;;;4.60;3.03;;;;;;;23.60;47.59;101990.59;5070519;28;20701;-67
2023/09/27 00:27:33;;;;;;;5.78;3.67;;;;;;;23.63;47.56;102004.34;5025601;28;20040;-69
2023/09/27 00:29:59;;;;;;;3.70;3.33;;;;;;;23.62;47.75;102008.03;5067471;28;20051;-69
2023/09/27 00:32:25;;;;;;;3.65;3.05;;;;;;;23.61;47.72;102010.84;5026974;28;20044;-70
2023/09/27 00:34:50;;;;;;;4.18;2.95;;;;;;;23.62;47.50;102010.69;5087406;28;20464;-71
2023/09/27 00:37:16;;;;;;;3.67;3.10;;;;;;;23.62;47.78;102012.50;5029262;28;20032;-68
2023/09/27 00:39:41;;;;;;;6.72;3.45;;;;;;;23.61;47.71;102013.53;5066845;28;21374;-69
2023/09/27 00:42:08;;;;;;;3.95;3.30;;;;;;;23.59;47.65;102010.22;5065044;28;20059;-69
2023/09/27 00:44:34;;;;;;;4.70;3.03;;;;;;;23.61;47.55;102016.19;5070016;28;20785;-71
2023/09/27 00:47:01;;;;;;;4.30;3.28;;;;;;;23.62;47.49;102017.81;5027577;28;20070;-68
2023/09/27 00:49:26;;;;;;;3.30;3.00;;;;;;;23.63;47.74;102015.00;5072948;28;20052;-69
2023/09/27 00:51:52;;;;;;;5.93;3.45;;;;;;;23.62;47.57;102012.50;5018669;28;20039;-68
2023/09/27 00:54:19;;;;;;;4.10;3.20;;;;;;;23.62;47.38;102010.69;5071432;28;20463;-68
2023/09/27 00:56:47;;;;;;;3.67;3.00;;;;;;;23.61;47.56;102001.06;5022361;28;20114;-69
2023/09/27 00:59:15;;;;;;;4.65;3.20;;;;;;;23.62;47.62;102005.34;5075399;28;20028;-69
2023/09/27 01:01:41;;;;;;;3.63;2.88;;;;;;;23.58;47.64;101998.75;5027114;28;20048;-69
2023/09/27 01:04:08;;;;;;;6.22;3.17;;;;;;;23.60;47.50;102004.72;5079091;28;20090;-68
2023/09/27 01:06:34;;;;;;;5.00;3.15;;;;;;;23.60;47.50;102002.06;5059559;28;20035;-69
2023/09/27 01:09:00;;;;;;;4.70;3.22;;;;;;;23.60;47.43;102007.38;5081321;28;20555;-68
2023/09/27 01:11:27;;;;;;;4.10;3.10;;;;;;;23.60;47.61;102011.88;5029073;28;20047;-67
2023/09/27 01:13:52;;;;;;;3.55;2.92;;;;;;;23.58;47.66;102006.72;5076524;28;20032;-67
2023/09/27 01:16:18;;;;;;;4.07;3.00;;;;;;;23.59;47.70;101992.44;5030170;28;20058;-67
2023/09/27 01:18:44;;;;;;;4.35;3.22;;;;;;;23.60;47.44;101991.41;5081372;28;20111;-67
2023/09/27 01:21:09;;;;;;;3.80;2.92;;;;;;;23.57;47.79;101991.78;5031242;28;20036;-68
2023/09/27 01:23:38;;;;;;;5.65;3.92;;;;;;;23.59;47.52;101988.94;5077511;28;20032;-69
2023/09/27 01:26:07;;;;;;;5.07;3.65;;;;;;;23.60;47.56;101998.56;5026342;28;20952;-68
2023/09/27 01:28:33;;;;;;;4.78;3.40;;;;;;;23.59;47.75;101999.56;5078943;28;20110;-68
2023/09/27 01:30:59;;;;;;;6.38;3.70;;;;;;;23.61;47.56;101998.38;5063321;28;20040;-68
2023/09/27 01:33:25;;;;;;;5.30;3.53;;;;;;;23.59;47.57;101996.91;5081711;28;20059;-68
2023/09/27 01:35:51;;;;;;;4.50;3.35;;;;;;;23.56;47.71;102000.72;5024662;28;20519;-68
2023/09/27 01:38:17;;;;;;;3.33;3.03;;;;;;;23.58;47.59;102009.38;5075561;28;20430;-69
2023/09/27 01:40:45;;;;;;;4.05;3.35;;;;;;;23.58;47.45;102011.22;5023505;28;20197;-67
2023/09/27 01:43:11;;;;;;;4.63;3.50;;;;;;;23.59;47.57;102005.72;5077383;28;20036;-66
2023/09/27 01:45:39;;;;;;;5.20;3.40;;;;;;;23.59;47.69;102007.56;5056933;28;20088;-67
2023/09/27 01:48:05;;;;;;;4.30;3.10;;;;;;;23.57;47.60;102002.41;5044098;28;20486;-67
2023/09/27 01:50:33;;;;;;;4.53;3.38;;;;;;;23.54;47.52;101999.25;5068114;28;20035;-68
2023/09/27 01:52:59;;;;;;;4.55;3.30;;;;;;;23.57;47.61;102004.25;5076316;28;20139;-68
2023/09/27 01:55:25;;;;;;;5.32;3.80;;;;;;;23.57;47.67;101999.75;5026861;28;20490;-68
2023/09/27 01:57:52;;;;;;;4.10;3.40;;;;;;;23.58;47.42;102013.88;5077875;28;20508;-68
2023/09/27 02:00:19;;;;;;;3.47;3.17;;;;;;;23.54;47.39;102001.91;5011838;28;20044;-68
2023/09/27 02:02:48;;;;;;;3.83;3.10;;;;;;;23.56;47.60;102018.50;5089883;28;20040;-68
2023/09/27 02:05:14;;;;;;;4.43;3.33;;;;;;;23.57;47.69;102009.56;5021471;28;20375;-68
2023/09/27 02:07:40;;;;;;;4.30;3.33;;;;;;;23.54;47.66;102004.56;5077237;28;20042;-68
2023/09/27 02:10:09;;;;;;;4.15;3.47;;;;;;;23.52;47.79;102008.22;5015511;28;20581;-68
2023/09/27 02:12:39;;;;;;;4.35;3.70;;;;;;;23.55;47.51;102012.38;5078145;28;20366;-68
2023/09/27 02:15:07;;;;;;;4.43;3.53;;;;;;;23.53;47.61;102011.72;5026999;28;20044;-67
2023/09/27 02:17:32;;;;;;;5.35;3.83;;;;;;;23.56;47.53;102011.38;5071882;28;20041;-67
2023/09/27 02:19:58;;;;;;;4.47;3.55;;;;;;;23.55;47.62;102008.88;5018380;28;20439;-67
2023/09/27 02:22:24;;;;;;;3.58;3.05;;;;;;;23.55;47.57;102009.72;5072278;28;20052;-67
2023/09/27 02:24:50;;;;;;;5.13;3.47;;;;;;;23.54;47.48;102009.88;5019139;28;20678;-66
2023/09/27 02:27:16;;;;;;;4.57;3.28;;;;;;;23.56;47.68;102007.88;5074155;28;20079;-67
2023/09/27 02:29:42;;;;;;;5.18;3.33;;;;;;;23.54;47.56;101996.59;5020493;28;20552;-69
2023/09/27 02:32:09;;;;;;;4.80;3.63;;;;;;;23.55;47.44;101998.25;5077506;28;20582;-68
2023/09/27 02:34:37;;;;;;;4.53;3.30;;;;;;;23.55;47.58;101998.25;5065196;28;20035;-69
2023/09/27 02:37:03;;;;;;;5.80;3.47;;;;;;;23.55;47.66;102006.22;5075099;28;20051;-69
2023/09/27 02:39:31;;;;;;;6.15;3.70;;;;;;;23.54;47.53;102013.38;5025834;28;20394;-69
2023/09/27 02:41:57;;;;;;;3.70;3.33;;;;;;;23.53;47.55;102009.06;5079383;28;20040;-68
2023/09/27 02:44:23;;;;;;;3.83;3.30;;;;;;;23.52;47.74;102010.91;5028187;28;20089;-67
2023/09/27 02:46:51;;;;;;;4.35;3.10;;;;;;;23.55;47.54;102001.72;5092882;28;20555;-66
2023/09/27 02:49:17;;;;;;;5.00;3.90;;;;;;;23.52;47.54;101992.28;5023684;28;20046;-68
2023/09/27 02:51:42;;;;;;;3.75;3.30;;;;;;;23.52;47.43;101996.78;5078196;28;20047;-68
2023/09/27 02:54:09;;;;;;;5.55;3.78;;;;;;;23.54;47.43;102004.56;5022567;28;20612;-68
2023/09/27 02:56:34;;;;;;;3.13;2.83;;;;;;;23.52;47.56;101999.44;5079583;28;20043;-68
2023/09/27 02:59:00;;;;;;;4.22;3.30;;;;;;;23.54;47.36;102001.91;5056718;28;20028;-67
2023/09/27 03:01:26;;;;;;;4.13;3.58;;;;;;;23.50;47.56;102001.41;5079009;28;20054;-67
2023/09/27 03:03:52;;;;;;;4.43;3.60;;;;;;;23.50;47.35;102018.19;5026814;28;20039;-67
2023/09/27 03:06:18;;;;;;;3.85;3.30;;;;;;;23.51;47.58;102003.06;5077085;28;20040;-68
2023/09/27 03:08:43;;;;;;;4.13;3.03;;;;;;;23.53;47.69;102001.09;5023356;28;20032;-67
2023/09/27 03:11:09;;;;;;;5.53;3.55;;;;;;;23.51;47.39;101995.91;5077716;28;20794;-67
2023/09/27 03:13:38;;;;;;;3.65;2.95;;;;;;;23.52;47.35;102002.09;5023024;28;20510;-68
2023/09/27 03:16:04;;;;;;;4.20;3.63;;;;;;;23.41;47.60;101983.88;5075648;28;20036;-68
2023/09/27 03:18:32;;;;;;;3.92;3.40;;;;;;;23.51;47.35;101995.09;5064350;28;20032;-68
2023/09/27 03:21:00;;;;;;;3.75;3.33;;;;;;;23.51;47.57;101989.78;5073022;28;20830;-68
2023/09/27 03:23:27;;;;;;;5.55;3.70;;;;;;;23.53;47.47;101995.78;5024843;28;20044;-68
2023/09/27 03:25:53;;;;;;;4.30;3.78;;;;;;;23.52;47.55;102000.25;5078779;28;20122;-69
2023/09/27 03:28:19;;;;;;;5.00;3.45;;;;;;;23.50;47.48;102001.41;5023741;28;20048;-68
2023/09/27 03:30:48;;;;;;;5.20;3.60;;;;;;;23.51;47.46;102009.22;5076925;28;20067;-68
2023/09/27 03:33:14;;;;;;;5.07;3.97;;;;;;;23.49;47.44;102005.91;5017470;28;20055;-69
2023/09/27 03:35:41;;;;;;;4.82;3.58;;;;;;;23.50;47.63;102007.56;5063677;28;20093;-67
2023/09/27 03:38:07;;;;;;;3.58;3.28;;;;;;;23.51;47.41;102011.03;5077891;28;20031;-67
2023/09/27 03:40:33;;;;;;;5.07;3.38;;;;;;;23.50;47.50;102002.22;5023912;28;20119;-68
2023/09/27 03:42:59;;;;;;;5.88;3.50;;;;;;;23.49;47.46;101999.75;5074579;28;20040;-69
2023/09/27 03:45:27;;;;;;;6.10;3.90;;;;;;;23.48;47.36;102001.59;5026399;28;20044;-68
2023/09/27 03:47:53;;;;;;;4.90;3.88;;;;;;;23.51;47.31;101997.75;5075649;28;20055;-69
2023/09/27 03:50:20;;;;;;;4.80;3.47;;;;;;;23.51;47.30;101998.56;5022348;28;20627;-66
2023/09/27 03:52:46;;;;;;;4.38;3.30;;;;;;;23.50;47.17;101998.75;5062137;28;20101;-66
2023/09/27 03:55:12;;;;;;;4.97;3.70;;;;;;;23.49;47.50;101997.94;5076273;28;20097;-66
2023/09/27 03:57:40;;;;;;;4.55;3.72;;;;;;;23.48;47.34;101995.44;5020524;28;20042;-68
2023/09/27 04:00:12;;;;;;;4.43;3.20;;;;;;;23.48;47.51;101996.28;5092056;28;20040;-69
2023/09/27 04:02:38;;;;;;;4.90;3.65;;;;;;;23.50;47.33;101999.56;5025418;28;20047;-67
2023/09/27 04:05:05;;;;;;;5.00;3.75;;;;;;;23.49;47.49;101997.09;5078347;28;20027;-67
2023/09/27 04:07:30;;;;;;;4.00;3.53;;;;;;;23.46;47.29;101992.13;5018025;28;20052;-67
2023/09/27 04:09:56;;;;;;;6.38;3.70;;;;;;;23.49;47.37;101999.75;5070843;28;20036;-68
2023/09/27 04:12:21;;;;;;;4.35;3.78;;;;;;;23.47;47.15;101997.28;5063364;28;20043;-66
2023/09/27 04:14:47;;;;;;;4.30;3.80;;;;;;;23.46;47.48;102000.13;5070389;28;20738;-68
2023/09/27 04:17:13;;;;;;;5.50;3.42;;;;;;;23.46;47.56;102006.25;5027781;28;20406;-66
2023/09/27 04:19:38;;;;;;;5.30;3.80;;;;;;;23.44;47.47;102007.44;5082450;28;20036;-67
2023/09/27 04:22:04;;;;;;;4.80;3.47;;;;;;;23.44;47.30;102002.94;5022230;28;20222;-66
2023/09/27 04:24:30;;;;;;;4.80;3.80;;;;;;;23.46;47.17;102003.59;5076160;28;20502;-66
2023/09/27 04:26:56;;;;;;;5.50;3.75;;;;;;;23.45;47.14;102004.59;5026109;28;21424;-67
2023/09/27 04:29:22;;;;;;;6.43;4.15;;;;;;;23.44;47.50;102002.94;5056603;28;20043;-66
2023/09/27 04:31:47;;;;;;;4.68;3.67;;;;;;;23.42;47.58;102010.28;5058897;28;20048;-67
2023/09/27 04:34:13;;;;;;;5.38;3.83;;;;;;;23.44;47.42;102018.06;5078046;28;20035;-67
2023/09/27 04:36:38;;;;;;;6.45;3.72;;;;;;;23.44;47.37;102008.25;5029935;28;20044;-67
2023/09/27 04:39:10;;;;;;;6.47;3.70;;;;;;;23.45;47.17;101996.63;5083542;28;20117;-68
2023/09/27 04:41:36;;;;;;;5.45;4.10;;;;;;;23.44;47.42;102010.09;5030330;28;20124;-66
2023/09/27 04:44:02;;;;;;;4.32;3.47;;;;;;;23.43;47.40;102019.91;5085728;28;20617;-68
2023/09/27 04:46:27;;;;;;;4.45;3.85;;;;;;;23.45;47.21;102020.56;5025780;28;20047;-69
2023/09/27 04:48:53;;;;;;;5.55;3.53;;;;;;;23.41;47.31;102024.56;5079077;28;20448;-69
2023/09/27 04:51:18;;;;;;;4.32;3.72;;;;;;;23.43;47.30;102027.06;5030013;28;20040;-68
2023/09/27 04:53:44;;;;;;;4.47;3.72;;;;;;;23.44;47.32;102023.38;5083635;28;20509;-68
2023/09/27 04:56:12;;;;;;;4.97;3.95;;;;;;;23.42;47.44;102028.88;5067543;28;20051;-69
2023/09/27 04:58:40;;;;;;;5.20;3.70;;;;;;;23.41;47.41;102032.53;5078838;28;20577;-68
2023/09/27 05:01:06;;;;;;;4.80;3.75;;;;;;;23.39;47.38;102037.22;5026665;28;20087;-70
2023/09/27 05:03:31;;;;;;;5.25;3.67;;;;;;;23.39;47.18;102042.53;5074976;28;20036;-68
2023/09/27 05:05:57;;;;;;;3.97;3.38;;;;;;;23.41;47.39;102050.31;5028624;28;20043;-67
2023/09/27 05:08:24;;;;;;;3.75;3.35;;;;;;;23.41;47.15;102060.97;5074710;28;20040;-66
2023/09/27 05:10:50;;;;;;;5.55;3.90;;;;;;;23.39;47.59;102057.66;5024689;28;20044;-68
2023/09/27 05:13:15;;;;;;;4.30;3.45;;;;;;;23.40;47.54;102060.13;5076005;28;21408;-70
2023/09/27 05:15:41;;;;;;;5.53;4.13;;;;;;;23.38;47.46;102069.28;5027546;28;20100;-66
2023/09/27 05:18:06;;;;;;;5.38;3.80;;;;;;;23.37;47.30;102062.31;5061331;28;20402;-66
2023/09/27 05:20:32;;;;;;;5.10;4.07;;;;;;;23.38;47.34;102063.97;5079101;28;20128;-69
2023/09/27 05:22:57;;;;;;;5.32;3.95;;;;;;;23.40;47.38;102061.97;5027989;28;20048;-69
2023/09/27 05:25:23;;;;;;;4.57;3.50;;;;;;;23.40;47.18;102061.97;5078835;28;20051;-68
2023/09/27 05:27:48;;;;;;;5.47;3.70;;;;;;;23.39;47.21;102073.59;5028679;28;20046;-70
2023/09/27 05:30:16;;;;;;;5.18;3.83;;;;;;;23.40;47.23;102078.75;5075575;28;20047;-70
2023/09/27 05:32:43;;;;;;;4.95;3.60;;;;;;;23.38;47.31;102086.06;5022980;28;20516;-68
2023/09/27 05:35:09;;;;;;;5.13;3.63;;;;;;;23.38;47.28;102088.72;5079723;28;20046;-70
2023/09/27 05:37:35;;;;;;;3.97;3.58;;;;;;;23.37;47.20;102079.09;5029516;28;20394;-69
2023/09/27 05:40:04;;;;;;;4.15;3.30;;;;;;;23.38;47.12;102080.75;5079329;28;20048;-68
2023/09/27 05:42:30;;;;;;;5.47;4.28;;;;;;;23.37;47.45;102068.47;5062255;28;20035;-68
2023/09/27 05:44:56;;;;;;;6.93;4.35;;;;;;;23.37;47.47;102065.78;5078924;28;20028;-68
2023/09/27 05:47:24;;;;;;;6.05;4.15;;;;;;;23.39;47.38;102063.78;5023572;28;20048;-67
2023/09/27 05:49:50;;;;;;;6.10;3.78;;;;;;;23.38;47.17;102062.13;5077478;28;20053;-66
2023/09/27 05:52:17;;;;;;;5.63;3.90;;;;;;;23.37;47.38;102057.81;5026183;28;20040;-68
2023/09/27 05:54:42;;;;;;;5.07;3.60;;;;;;;23.39;47.18;102055.81;5080942;28;20125;-68
2023/09/27 05:57:08;;;;;;;4.85;3.95;;;;;;;23.38;47.30;102053.34;5025724;28;20530;-69
2023/09/27 05:59:34;;;;;;;4.80;3.90;;;;;;;23.35;47.38;102045.72;5073528;28;20056;-68
2023/09/27 06:01:59;;;;;;;4.80;3.72;;;;;;;23.39;47.46;102055.00;5026388;28;20048;-66
2023/09/27 06:04:25;;;;;;;7.00;4.50;;;;;;;23.38;47.39;102038.22;5078301;28;20592;-66
2023/09/27 06:06:53;;;;;;;5.18;3.70;;;;;;;23.40;47.16;102041.53;5065641;28;20056;-66
2023/09/27 06:09:19;;;;;;;4.97;3.92;;;;;;;23.40;47.27;102038.03;5076209;28;20043;-67
2023/09/27 06:11:46;;;;;;;4.32;3.75;;;;;;;23.38;47.36;102043.53;5024033;28;20740;-68
2023/09/27 06:14:12;;;;;;;4.65;3.90;;;;;;;23.38;47.34;102053.34;5077217;28;21117;-68
2023/09/27 06:16:39;;;;;;;4.78;3.65;;;;;;;23.41;47.38;102047.66;5028611;28;20042;-69
2023/09/27 06:19:04;;;;;;;4.28;3.75;;;;;;;23.37;47.13;102044.53;5084511;28;20051;-69
2023/09/27 06:21:30;;;;;;;5.13;4.10;;;;;;;23.40;47.14;102043.34;5021016;28;20410;-67
2023/09/27 06:23:55;;;;;;;4.50;3.63;;;;;;;23.39;47.13;102047.00;5075516;28;20036;-68
2023/09/27 06:26:21;;;;;;;4.05;3.60;;;;;;;23.40;47.17;102038.88;5015329;28;20083;-69
2023/09/27 06:28:47;;;;;;;4.88;3.83;;;;;;;23.41;47.25;102040.53;5072125;28;20418;-69
2023/09/27 06:31:13;;;;;;;5.45;3.67;;;;;;;23.41;47.17;102034.38;5055398;28;20032;-68
2023/09/27 06:33:39;;;;;;;4.88;4.13;;;;;;;23.39;47.38;102033.72;5078189;28;20052;-67
2023/09/27 06:36:08;;;;;;;4.60;3.72;;;;;;;23.37;47.36;102036.56;5023771;28;21985;-71
2023/09/27 06:38:34;;;;;;;4.82;3.63;;;;;;;23.38;47.32;102046.19;5076799;28;20035;-67
2023/09/27 06:41:00;;;;;;;7.88;4.18;;;;;;;23.40;47.34;102044.19;5030213;28;20599;-68
2023/09/27 06:43:28;;;;;;;6.13;4.28;;;;;;;23.40;47.14;102051.31;5080845;28;20600;-67
2023/09/27 06:45:54;;;;;;;6.18;4.13;;;;;;;23.39;47.26;102047.84;5023768;28;20526;-68
2023/09/27 06:48:20;;;;;;;4.68;3.53;;;;;;;23.42;47.30;102042.19;5078715;28;20071;-68
2023/09/27 06:50:47;;;;;;;5.40;3.92;;;;;;;23.40;47.12;102046.84;5024986;28;20625;-66
2023/09/27 06:53:13;;;;;;;4.40;3.88;;;;;;;23.41;47.32;102052.97;5064374;28;20551;-67
2023/09/27 06:55:39;;;;;;;4.82;3.63;;;;;;;23.40;47.16;102059.31;5077727;28;20040;-67
2023/09/27 06:58:05;;;;;;;5.82;3.63;;;;;;;23.42;47.34;102068.75;5022864;28;20443;-66
2023/09/27 07:00:30;;;;;;;5.72;3.80;;;;;;;23.39;47.18;102071.75;5072674;28;20064;-68
2023/09/27 07:02:56;;;;;;;5.28;3.15;;;;;;;23.54;46.85;102065.72;5017870;28;20033;-67
2023/09/27 07:05:22;;;;;;;4.32;3.63;;;;;;;23.59;46.97;102063.38;5079567;28;20510;-68
2023/09/27 07:07:52;;;;;;;4.22;3.53;;;;;;;23.61;47.10;102066.69;5018750;28;20091;-68
2023/09/27 07:10:18;;;;;;;3.75;3.40;;;;;;;23.60;47.18;102070.38;5075822;28;20044;-68
2023/09/27 07:12:44;;;;;;;4.60;3.40;;;;;;;23.60;47.26;102065.88;5024609;28;20039;-68
2023/09/27 07:15:12;;;;;;;4.82;3.40;;;;;;;23.64;47.24;102071.66;5064379;28;20040;-68
2023/09/27 07:17:39;;;;;;;4.35;3.63;;;;;;;23.67;46.99;102069.47;5074842;28;20040;-68
2023/09/27 07:20:28;;;;;;;4.63;3.55;;;;;;;23.62;46.98;102057.72;5027079;28;20429;-68
2023/09/27 07:22:55;;;;;;;5.53;3.35;;;;;;;23.65;47.22;102079.47;5075370;28;20036;-68
2023/09/27 07:25:21;;;;;;;4.38;3.40;;;;;;;23.61;47.09;102059.53;5028320;28;20036;-67
2023/09/27 07:27:51;;;;;;;7.65;3.83;;;;;;;23.66;47.08;102075.78;5074498;28;20036;-67
2023/09/27 07:30:26;;;;;;;4.35;3.38;;;;;;;23.65;47.14;102074.16;5024857;28;20039;-68
2023/09/27 07:32:56;;;;;;;4.72;3.70;;;;;;;23.62;47.28;102071.84;5079538;28;20056;-68
2023/09/27 07:35:23;;;;;;;4.47;3.42;;;;;;;23.61;47.20;102066.69;5023667;28;20075;-67
2023/09/27 07:37:49;;;;;;;4.45;3.58;;;;;;;23.69;46.93;102080.75;5076787;28;20032;-67
2023/09/27 07:40:15;;;;;;;4.93;3.53;;;;;;;23.68;47.09;102084.44;5064790;28;20946;-67
2023/09/27 07:42:42;;;;;;;5.43;3.70;;;;;;;23.67;47.12;102077.44;5075022;28;20043;-68
2023/09/27 07:45:20;;;;;;;5.38;3.78;;;;;;;23.69;47.19;102085.25;5019928;28;20048;-68
2023/09/27 07:47:53;;;;;;;6.25;3.85;;;;;;;23.72;46.92;102083.09;5069656;28;20063;-68
2023/09/27 07:50:38;;;;;;;5.50;3.40;;;;;;;23.72;46.92;102084.94;5022855;28;20048;-68
2023/09/27 07:53:08;;;;;;;8.40;4.20;;;;;;;23.67;47.17;102088.09;5073776;28;20086;-67
2023/09/27 07:55:43;;;;;;;4.32;3.63;;;;;;;23.67;47.18;102097.91;5012579;28;20044;-67
2023/09/27 07:58:09;;;;;;;4.88;4.03;;;;;;;23.66;47.09;102097.06;5085152;28;20040;-67
2023/09/27 08:00:40;;;;;;;4.32;3.75;;;;;;;23.60;47.03;102086.31;5040339;28;20089;-67
2023/09/27 08:03:10;;;;;;;6.78;4.20;;;;;;;23.65;47.26;102107.88;5057186;28;20117;-68
2023/09/27 08:05:43;;;;;;;4.78;3.70;;;;;;;23.66;47.22;102106.88;5051849;28;20055;-69
2023/09/27 08:08:13;;;;;;;4.47;3.58;;;;;;;23.69;47.27;102095.88;5091173;28;20036;-67
2023/09/27 08:10:45;;;;;;;6.03;4.07;;;;;;;23.66;47.24;102096.25;5033185;28;20135;-69
2023/09/27 08:13:17;;;;;;;5.32;3.78;;;;;;;23.63;47.10;102099.25;5074927;28;20381;-68
2023/09/27 08:15:47;;;;;;;7.07;4.90;;;;;;;23.59;47.37;102112.06;5059639;28;20067;-69
2023/09/27 08:18:13;;;;;;;7.10;3.90;;;;;;;23.63;47.37;102104.56;5072506;28;20043;-68
2023/09/27 08:20:40;;;;;;;5.40;3.80;;;;;;;23.57;47.41;102087.50;5024867;28;20048;-69
2023/09/27 08:23:06;;;;;;;5.63;3.92;;;;;;;23.70;47.03;102100.22;5061070;28;20036;-69
2023/09/27 08:25:37;;;;;;;6.35;3.47;;;;;;;23.64;47.01;102082.28;5067495;28;20081;-68
2023/09/27 08:28:12;;;;;;;5.35;4.00;;;;;;;23.73;47.09;102089.25;5057424;28;20105;-67
2023/09/27 08:30:39;;;;;;;6.35;3.95;;;;;;;23.71;47.22;102089.41;5027612;28;20479;-68
2023/09/27 08:33:06;;;;;;;4.63;3.83;;;;;;;23.77;47.09;102087.88;5061621;28;20512;-67
2023/09/27 08:35:36;;;;;;;5.50;4.05;;;;;;;23.75;47.09;102096.03;5061271;28;20028;-69
2023/09/27 08:38:02;;;;;;;5.45;3.70;;;;;;;23.76;47.18;102096.88;5016740;28;20081;-68
2023/09/27 08:40:28;;;;;;;6.55;3.40;;;;;;;23.80;47.06;102092.84;5060946;28;20119;-67
2023/09/27 08:42:58;;;;;;;4.13;3.65;;;;;;;23.75;47.34;102096.03;5076733;28;20052;-67
2023/09/27 08:45:24;;;;;;;5.85;3.38;;;;;;;23.78;47.05;102089.53;5022514;28;20051;-67
2023/09/27 08:47:51;;;;;;;4.47;3.60;;;;;;;23.77;47.11;102098.53;5076523;28;20162;-67
2023/09/27 08:50:18;;;;;;;4.47;3.80;;;;;;;23.78;47.17;102097.50;5020117;28;20119;-69
2023/09/27 08:52:50;;;;;;;4.53;3.58;;;;;;;23.82;47.08;102093.50;5071920;28;20036;-67
2023/09/27 08:55:17;;;;;;;5.03;3.53;;;;;;;23.84;47.30;102103.94;5023827;28;20635;-68
2023/09/27 08:57:51;;;;;;;4.10;3.70;;;;;;;23.85;46.97;102108.28;5072742;28;20099;-68
2023/09/27 09:00:26;;;;;;;3.72;3.33;;;;;;;23.86;47.07;102123.22;5060507;28;20040;-67
2023/09/27 09:02:57;;;;;;;6.32;3.53;;;;;;;23.80;47.12;102116.78;5075925;28;20054;-69
2023/09/27 09:05:24;;;;;;;4.22;3.35;;;;;;;23.86;47.02;102125.88;5024656;28;20068;-70
2023/09/27 09:07:53;;;;;;;4.38;3.60;;;;;;;23.89;47.01;102137.03;5071061;28;20160;-69
2023/09/27 09:10:19;;;;;;;5.53;3.45;;;;;;;23.93;46.90;102142.81;5020202;28;20036;-69
2023/09/27 09:12:47;;;;;;;5.22;3.58;;;;;;;23.90;46.91;102136.03;5079505;28;20536;-69
2023/09/27 09:15:29;;;;;;;3.95;3.33;;;;;;;23.94;46.91;102134.66;5026795;28;20075;-68
2023/09/27 09:17:57;;;;;;;4.35;3.40;;;;;;;23.91;46.98;102136.84;5074310;28;20098;-69
2023/09/27 09:20:32;;;;;;;4.40;3.65;;;;;;;23.92;46.88;102135.84;5027831;28;20039;-69
2023/09/27 09:23:02;;;;;;;4.53;3.53;;;;;;;23.95;46.69;102135.50;5077896;28;20087;-69
2023/09/27 09:25:28;;;;;;;4.55;3.70;;;;;;;23.96;46.89;102142.47;5060682;28;20044;-69
2023/09/27 09:28:12;;;;;;;3.95;3.20;;;;;;;23.87;46.81;102122.22;5091831;28;20090;-69
2023/09/27 09:30:40;;;;;;;6.40;3.60;;;;;;;23.88;46.92;102130.06;5024780;28;20145;-67
2023/09/27 09:33:11;;;;;;;4.97;3.45;;;;;;;23.98;46.77;102133.31;5079188;28;20079;-68
2023/09/27 09:35:37;;;;;;;5.53;3.38;;;;;;;23.95;46.92;102131.00;5030466;28;20043;-68
2023/09/27 09:38:03;;;;;;;6.03;3.97;;;;;;;23.97;46.71;102131.66;5076616;28;20043;-68
2023/09/27 09:40:31;;;;;;;4.30;3.60;;;;;;;24.01;46.77;102124.13;5029118;28;20489;-67
2023/09/27 09:42:59;;;;;;;3.70;3.20;;;;;;;23.96;46.82;102111.38;5081471;28;20039;-67
2023/09/27 09:45:24;;;;;;;4.10;3.17;;;;;;;23.97;46.72;102115.69;5023710;28;20149;-68
2023/09/27 09:47:51;;;;;;;5.07;3.55;;;;;;;23.96;47.06;102113.19;4991706;28;20046;-68
2023/09/27 09:50:17;;;;;;;5.78;3.28;;;;;;;24.01;46.79;102116.97;5076691;28;20036;-68
2023/09/27 09:52:53;;;;;;;4.53;3.30;;;;;;;24.00;46.83;102114.50;5026186;28;20036;-68
2023/09/27 09:55:21;;;;;;;4.22;3.20;;;;;;;24.01;46.73;102116.97;5090815;28;20619;-68
2023/09/27 09:57:51;;;;;;;5.72;3.63;;;;;;;24.04;46.82;102118.44;5028538;28;20096;-70
2023/09/27 10:00:17;;;;;;;6.32;4.00;;;;;;;23.96;47.12;102119.34;5082451;28;20470;-68
2023/09/27 10:02:49;;;;;;;7.75;3.63;;;;;;;23.93;47.19;102114.38;5029786;28;20131;-68
2023/09/27 10:05:19;;;;;;;5.03;3.53;;;;;;;23.90;47.25;102119.22;5075470;28;20047;-68
2023/09/27 10:07:46;;;;;;;7.15;3.58;;;;;;;23.89;47.36;102109.59;5024068;28;20093;-68
2023/09/27 10:10:15;;;;;;;5.82;3.75;;;;;;;23.88;47.96;102092.81;5061643;28;20038;-68
2023/09/27 10:12:44;;;;;;;5.43;3.75;;;;;;;23.86;47.63;102083.31;5074060;28;20035;-68
2023/09/27 10:15:11;;;;;;;7.25;3.45;;;;;;;23.81;47.88;102081.19;5024952;28;20064;-68
2023/09/27 10:17:37;;;;;;;6.78;3.80;;;;;;;23.73;48.07;102084.75;5079176;28;20044;-68
2023/09/27 10:20:18;;;;;;;5.97;3.53;;;;;;;23.70;48.11;102069.16;5026045;28;20307;-68
2023/09/27 10:22:45;;;;;;;4.97;3.28;;;;;;;23.73;48.25;102078.59;5081715;28;20028;-68
2023/09/27 10:25:31;;;;;;;7.38;3.83;;;;;;;23.71;48.24;102069.97;5026095;28;20036;-69
2023/09/27 10:28:04;;;;;;;5.38;3.83;;;;;;;23.71;48.38;102064.66;5078466;28;20428;-69
2023/09/27 10:30:44;;;;;;;4.97;3.20;;;;;;;23.66;48.49;102062.50;5064485;28;21274;-69
2023/09/27 10:33:15;;;;;;;6.60;3.70;;;;;;;23.68;48.63;102062.31;5075106;28;20133;-69
2023/09/27 10:35:45;;;;;;;8.48;3.58;;;;;;;23.65;48.68;102058.19;5025142;28;20398;-68
2023/09/27 10:38:11;;;;;;;9.02;3.15;;;;;;;23.64;48.69;102063.69;5074034;28;20078;-68
2023/09/27 10:40:44;;;;;;;4.90;3.55;;;;;;;23.57;48.63;102042.28;5028269;28;20482;-70
2023/09/27 10:43:30;;;;;;;4.60;3.28;;;;;;;23.60;48.84;102041.13;5077600;28;20824;-70
2023/09/27 10:45:55;;;;;;;5.43;3.63;;;;;;;23.63;48.88;102036.25;5026448;28;20561;-70
2023/09/27 10:48:22;;;;;;;7.03;4.00;;;;;;;23.61;49.05;102030.28;5078152;28;20083;-70
2023/09/27 10:50:58;;;;;;;4.30;2.90;;;;;;;23.59;49.02;102031.47;5025650;28;20082;-68
2023/09/27 10:53:24;;;;;;;6.70;3.30;;;;;;;23.58;49.13;102019.19;5065268;28;20048;-69
2023/09/27 10:55:50;;;;;;;5.82;3.42;;;;;;;23.56;48.99;102022.00;5077750;28;20047;-69
2023/09/27 10:58:17;;;;;;;7.32;3.40;;;;;;;23.51;49.32;102005.72;5028380;28;20044;-69
2023/09/27 11:00:56;;;;;;;5.70;3.58;;;;;;;23.55;49.30;102012.38;5080117;28;20563;-69
2023/09/27 11:03:23;;;;;;;4.20;3.38;;;;;;;23.55;49.43;102000.91;5025613;28;20043;-69
2023/09/27 11:05:50;;;;;;;4.70;3.50;;;;;;;23.53;49.47;102001.09;5076062;28;20070;-69
2023/09/27 11:08:24;;;;;;;5.63;3.53;;;;;;;23.54;49.22;102002.75;5024660;28;20044;-68
2023/09/27 11:10:52;;;;;;;6.55;3.40;;;;;;;23.52;49.54;101988.78;5073879;28;20040;-69
2023/09/27 11:13:19;;;;;;;4.57;3.10;;;;;;;23.50;49.79;101983.63;5021779;28;20215;-70
2023/09/27 11:15:45;;;;;;;5.43;3.47;;;;;;;23.52;49.75;101997.59;5059100;28;20051;-68
2023/09/27 11:18:11;;;;;;;5.57;3.85;;;;;;;23.51;49.76;102022.50;5076760;28;20037;-68
2023/09/27 11:20:41;;;;;;;4.50;3.30;;;;;;;23.47;49.72;102015.06;5025407;28;20548;-68
2023/09/27 11:23:07;;;;;;;5.75;4.07;;;;;;;23.49;49.71;102021.84;5062878;28;20036;-69
2023/09/27 11:25:40;;;;;;;4.22;3.40;;;;;;;23.50;49.63;102022.69;5063314;28;20044;-70